sensor_id;sensor_type;location;lat;lon;timestamp;temperature;humidity
17815;DHT22;9031;50.974;11.330;2023-02-22T00:00:37;9.90;99.90
17815;DHT22;9031;50.974;11.330;2023-02-22T00:05:35;10.00;99.90
17815;DHT22;9031;50.974;11.330;2023-02-22T00:08:04;10.00;99.90
17815;DHT22;9031;50.974;11.330;2023-02-22T00:10:29;10.10;99.90
17815;DHT22;9031;50.974;11.330;2023-02-22T00:12:55;10.10;99.90
17815;DHT22;9031;50.974;11.330;2023-02-22T00:15:22;10.10;99.90
17815;DHT22;9031;50.974;11.330;2023-02-22T00:17:54;10.10;99.90
17815;DHT22;9031;50.974;11.330;2023-02-22T00:20:22;10.10;99.90
17815;DHT22;9031;50.974;11.330;2023-02-22T00:22:49;10.10;99.90
17815;DHT22;9031;50.974;11.330;2023-02-22T00:25:17;10.10;99.90
17815;DHT22;9031;50.974;11.330;2023-02-22T00:27:43;10.10;99.90
17815;DHT22;9031;50.974;11.330;2023-02-22T00:30:15;10.10;99.90
17815;DHT22;9031;50.974;11.330;2023-02-22T00:32:45;10.10;99.90
17815;DHT22;9031;50.974;11.330;2023-02-22T00:35:12;10.20;99.90
17815;DHT22;9031;50.974;11.330;2023-02-22T00:37:38;10.10;99.90
17815;DHT22;9031;50.974;11.330;2023-02-22T00:40:07;9.80;99.90
17815;DHT22;9031;50.974;11.330;2023-02-22T00:42:33;9.60;99.90
17815;DHT22;9031;50.974;11.330;2023-02-22T00:44:58;9.70;99.90
17815;DHT22;9031;50.974;11.330;2023-02-22T00:47:24;9.60;99.90
17815;DHT22;9031;50.974;11.330;2023-02-22T00:49:51;9.60;99.90
17815;DHT22;9031;50.974;11.330;2023-02-22T00:52:16;9.50;99.90
17815;DHT22;9031;50.974;11.330;2023-02-22T00:54:42;9.50;99.90
17815;DHT22;9031;50.974;11.330;2023-02-22T00:57:07;9.40;99.90
17815;DHT22;9031;50.974;11.330;2023-02-22T00:59:33;9.50;99.90
17815;DHT22;9031;50.974;11.330;2023-02-22T01:01:58;9.70;99.90
17815;DHT22;9031;50.974;11.330;2023-02-22T01:04:24;9.80;99.90
17815;DHT22;9031;50.974;11.330;2023-02-22T01:06:50;9.80;99.90
17815;DHT22;9031;50.974;11.330;2023-02-22T01:09:15;9.60;99.90
17815;DHT22;9031;50.974;11.330;2023-02-22T01:11:40;9.40;99.90
17815;DHT22;9031;50.974;11.330;2023-02-22T01:14:06;9.30;99.90
17815;DHT22;9031;50.974;11.330;2023-02-22T01:16:34;9.40;99.90
17815;DHT22;9031;50.974;11.330;2023-02-22T01:19:00;9.30;99.90
17815;DHT22;9031;50.974;11.330;2023-02-22T01:21:25;9.30;99.90
17815;DHT22;9031;50.974;11.330;2023-02-22T01:23:51;9.40;99.90
17815;DHT22;9031;50.974;11.330;2023-02-22T01:26:17;9.50;99.90
17815;DHT22;9031;50.974;11.330;2023-02-22T01:28:42;9.60;99.90
17815;DHT22;9031;50.974;11.330;2023-02-22T01:31:08;9.60;99.90
17815;DHT22;9031;50.974;11.330;2023-02-22T01:33:34;9.60;99.90
17815;DHT22;9031;50.974;11.330;2023-02-22T01:36:00;9.40;99.90
17815;DHT22;9031;50.974;11.330;2023-02-22T01:38:25;9.30;99.90
17815;DHT22;9031;50.974;11.330;2023-02-22T01:40:51;9.30;99.90
17815;DHT22;9031;50.974;11.330;2023-02-22T01:43:27;9.30;99.90
17815;DHT22;9031;50.974;11.330;2023-02-22T01:46:24;9.30;99.90
17815;DHT22;9031;50.974;11.330;2023-02-22T01:48:56;9.20;99.90
17815;DHT22;9031;50.974;11.330;2023-02-22T01:51:27;9.20;99.90
17815;DHT22;9031;50.974;11.330;2023-02-22T01:53:59;9.20;99.90
17815;DHT22;9031;50.974;11.330;2023-02-22T01:56:28;9.20;99.90
17815;DHT22;9031;50.974;11.330;2023-02-22T01:59:00;9.40;99.90
17815;DHT22;9031;50.974;11.330;2023-02-22T02:01:27;9.50;99.90
17815;DHT22;9031;50.974;11.330;2023-02-22T02:03:59;9.60;99.90
17815;DHT22;9031;50.974;11.330;2023-02-22T02:06:27;9.60;99.90
17815;DHT22;9031;50.974;11.330;2023-02-22T02:09:09;9.60;99.90
17815;DHT22;9031;50.974;11.330;2023-02-22T02:11:37;9.70;99.90
17815;DHT22;9031;50.974;11.330;2023-02-22T02:14:06;9.70;99.90
17815;DHT22;9031;50.974;11.330;2023-02-22T02:16:43;9.60;99.90
17815;DHT22;9031;50.974;11.330;2023-02-22T02:19:37;9.60;99.90
17815;DHT22;9031;50.974;11.330;2023-02-22T02:31:11;9.80;99.90
17815;DHT22;9031;50.974;11.330;2023-02-22T02:33:49;9.80;99.90
17815;DHT22;9031;50.974;11.330;2023-02-22T02:36:33;9.80;99.90
17815;DHT22;9031;50.974;11.330;2023-02-22T02:39:18;9.70;99.90
17815;DHT22;9031;50.974;11.330;2023-02-22T02:41:48;9.70;99.90
17815;DHT22;9031;50.974;11.330;2023-02-22T02:44:35;9.80;99.90
17815;DHT22;9031;50.974;11.330;2023-02-22T02:47:05;9.80;99.90
17815;DHT22;9031;50.974;11.330;2023-02-22T02:49:52;9.80;99.90
17815;DHT22;9031;50.974;11.330;2023-02-22T02:52:20;9.70;99.90
17815;DHT22;9031;50.974;11.330;2023-02-22T02:54:47;9.70;99.90
17815;DHT22;9031;50.974;11.330;2023-02-22T02:57:13;9.70;99.90
17815;DHT22;9031;50.974;11.330;2023-02-22T02:59:38;9.80;99.90
17815;DHT22;9031;50.974;11.330;2023-02-22T03:05:29;9.80;99.90
17815;DHT22;9031;50.974;11.330;2023-02-22T03:11:24;9.60;99.90
17815;DHT22;9031;50.974;11.330;2023-02-22T03:14:12;9.60;99.90
17815;DHT22;9031;50.974;11.330;2023-02-22T03:17:09;9.60;99.90
17815;DHT22;9031;50.974;11.330;2023-02-22T03:19:40;9.60;99.90
17815;DHT22;9031;50.974;11.330;2023-02-22T03:22:32;9.60;99.90
17815;DHT22;9031;50.974;11.330;2023-02-22T03:25:12;9.60;99.90
17815;DHT22;9031;50.974;11.330;2023-02-22T03:27:54;9.50;99.90
17815;DHT22;9031;50.974;11.330;2023-02-22T03:33:00;9.40;99.90
17815;DHT22;9031;50.974;11.330;2023-02-22T03:35:35;9.40;99.90
17815;DHT22;9031;50.974;11.330;2023-02-22T03:38:06;9.40;99.90
17815;DHT22;9031;50.974;11.330;2023-02-22T03:40:36;9.40;99.90
17815;DHT22;9031;50.974;11.330;2023-02-22T03:43:06;9.40;99.90
17815;DHT22;9031;50.974;11.330;2023-02-22T03:45:35;9.40;99.90
17815;DHT22;9031;50.974;11.330;2023-02-22T03:48:30;9.30;99.90
17815;DHT22;9031;50.974;11.330;2023-02-22T03:50:57;9.30;99.90
17815;DHT22;9031;50.974;11.330;2023-02-22T03:53:25;9.20;99.90
17815;DHT22;9031;50.974;11.330;2023-02-22T03:55:54;9.20;99.90
17815;DHT22;9031;50.974;11.330;2023-02-22T03:58:21;9.10;99.90
17815;DHT22;9031;50.974;11.330;2023-02-22T04:00:47;9.10;99.90
17815;DHT22;9031;50.974;11.330;2023-02-22T04:03:18;9.00;99.90
17815;DHT22;9031;50.974;11.330;2023-02-22T04:05:43;8.90;99.90
17815;DHT22;9031;50.974;11.330;2023-02-22T04:08:09;8.90;99.90
17815;DHT22;9031;50.974;11.330;2023-02-22T04:10:34;8.80;99.90
17815;DHT22;9031;50.974;11.330;2023-02-22T04:13:02;8.80;99.90
17815;DHT22;9031;50.974;11.330;2023-02-22T04:15:27;8.80;99.90
17815;DHT22;9031;50.974;11.330;2023-02-22T04:17:53;8.70;99.90
17815;DHT22;9031;50.974;11.330;2023-02-22T04:20:19;8.70;99.90
17815;DHT22;9031;50.974;11.330;2023-02-22T04:22:50;8.70;99.90
17815;DHT22;9031;50.974;11.330;2023-02-22T04:25:16;8.60;99.90
17815;DHT22;9031;50.974;11.330;2023-02-22T04:27:43;8.60;99.90
17815;DHT22;9031;50.974;11.330;2023-02-22T04:30:09;8.50;99.90
17815;DHT22;9031;50.974;11.330;2023-02-22T04:32:35;8.50;99.90
17815;DHT22;9031;50.974;11.330;2023-02-22T04:35:00;8.40;99.90
17815;DHT22;9031;50.974;11.330;2023-02-22T04:37:26;8.30;99.90
17815;DHT22;9031;50.974;11.330;2023-02-22T04:39:51;8.30;99.90
17815;DHT22;9031;50.974;11.330;2023-02-22T04:42:16;8.30;99.90
17815;DHT22;9031;50.974;11.330;2023-02-22T04:44:42;8.20;99.90
17815;DHT22;9031;50.974;11.330;2023-02-22T04:47:07;8.20;99.90
17815;DHT22;9031;50.974;11.330;2023-02-22T04:49:33;8.30;99.90
17815;DHT22;9031;50.974;11.330;2023-02-22T04:51:58;8.50;99.90
17815;DHT22;9031;50.974;11.330;2023-02-22T04:54:24;8.50;99.90
17815;DHT22;9031;50.974;11.330;2023-02-22T04:56:49;8.50;99.90
17815;DHT22;9031;50.974;11.330;2023-02-22T04:59:16;8.50;99.90
17815;DHT22;9031;50.974;11.330;2023-02-22T05:01:41;8.40;99.90
17815;DHT22;9031;50.974;11.330;2023-02-22T05:04:07;8.40;99.90
17815;DHT22;9031;50.974;11.330;2023-02-22T05:06:33;8.20;99.90
17815;DHT22;9031;50.974;11.330;2023-02-22T05:08:58;8.30;99.90
17815;DHT22;9031;50.974;11.330;2023-02-22T05:11:24;8.40;99.90
17815;DHT22;9031;50.974;11.330;2023-02-22T05:13:49;8.40;99.90
17815;DHT22;9031;50.974;11.330;2023-02-22T05:16:15;8.30;99.90
17815;DHT22;9031;50.974;11.330;2023-02-22T05:18:41;8.40;99.90
17815;DHT22;9031;50.974;11.330;2023-02-22T05:21:07;8.40;99.90
17815;DHT22;9031;50.974;11.330;2023-02-22T05:23:33;8.30;99.90
17815;DHT22;9031;50.974;11.330;2023-02-22T05:25:58;8.30;99.90
17815;DHT22;9031;50.974;11.330;2023-02-22T05:28:24;8.20;99.90
17815;DHT22;9031;50.974;11.330;2023-02-22T05:30:50;8.20;99.90
17815;DHT22;9031;50.974;11.330;2023-02-22T05:33:15;8.20;99.90
17815;DHT22;9031;50.974;11.330;2023-02-22T05:35:41;8.20;99.90
17815;DHT22;9031;50.974;11.330;2023-02-22T05:38:08;8.20;99.90
17815;DHT22;9031;50.974;11.330;2023-02-22T05:40:34;8.20;99.90
17815;DHT22;9031;50.974;11.330;2023-02-22T05:43:01;8.40;99.90
17815;DHT22;9031;50.974;11.330;2023-02-22T05:45:27;8.40;99.90
17815;DHT22;9031;50.974;11.330;2023-02-22T05:47:53;8.40;99.90
17815;DHT22;9031;50.974;11.330;2023-02-22T05:50:20;8.40;99.90
17815;DHT22;9031;50.974;11.330;2023-02-22T05:52:47;8.40;99.90
17815;DHT22;9031;50.974;11.330;2023-02-22T05:55:18;8.30;99.90
17815;DHT22;9031;50.974;11.330;2023-02-22T05:57:45;8.30;99.90
17815;DHT22;9031;50.974;11.330;2023-02-22T06:00:25;8.30;99.90
17815;DHT22;9031;50.974;11.330;2023-02-22T06:02:59;8.30;99.90
17815;DHT22;9031;50.974;11.330;2023-02-22T06:05:26;8.30;99.90
17815;DHT22;9031;50.974;11.330;2023-02-22T06:07:51;8.40;99.90
17815;DHT22;9031;50.974;11.330;2023-02-22T06:10:18;8.30;99.90
17815;DHT22;9031;50.974;11.330;2023-02-22T06:12:45;8.30;99.90
17815;DHT22;9031;50.974;11.330;2023-02-22T06:15:10;8.20;99.90
17815;DHT22;9031;50.974;11.330;2023-02-22T06:17:36;8.20;99.90
17815;DHT22;9031;50.974;11.330;2023-02-22T06:20:02;8.20;99.90
17815;DHT22;9031;50.974;11.330;2023-02-22T06:22:28;8.10;99.90
17815;DHT22;9031;50.974;11.330;2023-02-22T06:24:53;8.00;99.90
17815;DHT22;9031;50.974;11.330;2023-02-22T06:27:19;7.90;99.90
17815;DHT22;9031;50.974;11.330;2023-02-22T06:29:45;7.90;99.90
17815;DHT22;9031;50.974;11.330;2023-02-22T06:32:12;7.80;99.90
17815;DHT22;9031;50.974;11.330;2023-02-22T06:34:37;7.90;99.90
17815;DHT22;9031;50.974;11.330;2023-02-22T06:37:05;7.90;99.90
17815;DHT22;9031;50.974;11.330;2023-02-22T06:39:31;7.90;99.90
17815;DHT22;9031;50.974;11.330;2023-02-22T06:41:56;7.80;99.90
17815;DHT22;9031;50.974;11.330;2023-02-22T06:44:23;7.70;99.90
17815;DHT22;9031;50.974;11.330;2023-02-22T06:46:49;7.60;99.90
17815;DHT22;9031;50.974;11.330;2023-02-22T06:49:15;7.70;99.90
17815;DHT22;9031;50.974;11.330;2023-02-22T06:51:41;7.80;99.90
17815;DHT22;9031;50.974;11.330;2023-02-22T06:54:07;7.90;99.90
17815;DHT22;9031;50.974;11.330;2023-02-22T06:56:32;7.90;99.90
17815;DHT22;9031;50.974;11.330;2023-02-22T06:58:58;7.90;99.90
17815;DHT22;9031;50.974;11.330;2023-02-22T07:01:23;7.90;99.90
17815;DHT22;9031;50.974;11.330;2023-02-22T07:03:49;8.00;99.90
17815;DHT22;9031;50.974;11.330;2023-02-22T07:06:14;7.90;99.90
17815;DHT22;9031;50.974;11.330;2023-02-22T07:08:40;7.90;99.90
17815;DHT22;9031;50.974;11.330;2023-02-22T07:11:05;7.90;99.90
17815;DHT22;9031;50.974;11.330;2023-02-22T07:13:31;7.80;99.90
17815;DHT22;9031;50.974;11.330;2023-02-22T07:15:56;7.90;99.90
17815;DHT22;9031;50.974;11.330;2023-02-22T07:18:22;8.00;99.90
17815;DHT22;9031;50.974;11.330;2023-02-22T07:20:48;8.00;99.90
17815;DHT22;9031;50.974;11.330;2023-02-22T07:23:15;8.10;99.90
17815;DHT22;9031;50.974;11.330;2023-02-22T07:25:41;8.20;99.90
17815;DHT22;9031;50.974;11.330;2023-02-22T07:28:07;8.30;99.90
17815;DHT22;9031;50.974;11.330;2023-02-22T07:30:35;8.30;99.90
17815;DHT22;9031;50.974;11.330;2023-02-22T07:33:02;8.30;99.90
17815;DHT22;9031;50.974;11.330;2023-02-22T07:35:30;8.40;99.90
17815;DHT22;9031;50.974;11.330;2023-02-22T07:37:56;8.50;99.90
17815;DHT22;9031;50.974;11.330;2023-02-22T07:40:24;8.40;99.90
17815;DHT22;9031;50.974;11.330;2023-02-22T07:42:55;8.50;99.90
17815;DHT22;9031;50.974;11.330;2023-02-22T07:45:21;8.50;99.90
17815;DHT22;9031;50.974;11.330;2023-02-22T07:47:47;8.50;99.90
17815;DHT22;9031;50.974;11.330;2023-02-22T07:50:14;8.60;99.90
17815;DHT22;9031;50.974;11.330;2023-02-22T07:52:39;8.60;99.90
17815;DHT22;9031;50.974;11.330;2023-02-22T07:55:05;8.70;99.90
17815;DHT22;9031;50.974;11.330;2023-02-22T07:57:33;8.80;99.90
17815;DHT22;9031;50.974;11.330;2023-02-22T07:59:59;9.00;99.90
17815;DHT22;9031;50.974;11.330;2023-02-22T08:02:25;8.90;99.90
17815;DHT22;9031;50.974;11.330;2023-02-22T08:04:50;8.80;99.90
17815;DHT22;9031;50.974;11.330;2023-02-22T08:07:16;9.00;99.90
17815;DHT22;9031;50.974;11.330;2023-02-22T08:09:41;9.10;99.90
17815;DHT22;9031;50.974;11.330;2023-02-22T08:12:07;9.30;99.90
17815;DHT22;9031;50.974;11.330;2023-02-22T08:14:32;9.40;99.90
17815;DHT22;9031;50.974;11.330;2023-02-22T08:16:58;9.60;99.90
17815;DHT22;9031;50.974;11.330;2023-02-22T08:19:23;9.80;99.90
17815;DHT22;9031;50.974;11.330;2023-02-22T08:21:49;10.00;99.90
17815;DHT22;9031;50.974;11.330;2023-02-22T08:24:14;10.10;99.90
17815;DHT22;9031;50.974;11.330;2023-02-22T08:26:46;10.10;99.90
17815;DHT22;9031;50.974;11.330;2023-02-22T08:29:12;10.40;99.90
17815;DHT22;9031;50.974;11.330;2023-02-22T08:31:39;10.70;99.90
17815;DHT22;9031;50.974;11.330;2023-02-22T08:34:04;10.80;99.90
17815;DHT22;9031;50.974;11.330;2023-02-22T08:36:30;10.90;99.90
17815;DHT22;9031;50.974;11.330;2023-02-22T08:38:57;10.90;99.90
17815;DHT22;9031;50.974;11.330;2023-02-22T08:41:23;11.20;99.90
17815;DHT22;9031;50.974;11.330;2023-02-22T08:43:48;11.30;99.90
17815;DHT22;9031;50.974;11.330;2023-02-22T08:46:16;11.50;99.90
17815;DHT22;9031;50.974;11.330;2023-02-22T08:48:51;11.70;99.90
17815;DHT22;9031;50.974;11.330;2023-02-22T08:51:17;12.00;99.90
17815;DHT22;9031;50.974;11.330;2023-02-22T08:53:43;11.90;99.90
17815;DHT22;9031;50.974;11.330;2023-02-22T08:56:09;11.80;99.90
17815;DHT22;9031;50.974;11.330;2023-02-22T08:58:35;12.20;99.90
17815;DHT22;9031;50.974;11.330;2023-02-22T09:01:00;12.40;99.90
17815;DHT22;9031;50.974;11.330;2023-02-22T09:03:26;12.60;99.90
17815;DHT22;9031;50.974;11.330;2023-02-22T09:05:52;12.70;99.90
17815;DHT22;9031;50.974;11.330;2023-02-22T09:08:18;13.00;99.90
17815;DHT22;9031;50.974;11.330;2023-02-22T09:10:44;13.40;99.90
17815;DHT22;9031;50.974;11.330;2023-02-22T09:13:10;13.60;99.90
17815;DHT22;9031;50.974;11.330;2023-02-22T09:15:36;13.70;99.90
17815;DHT22;9031;50.974;11.330;2023-02-22T09:18:05;13.90;99.90
17815;DHT22;9031;50.974;11.330;2023-02-22T09:20:33;14.20;99.90
17815;DHT22;9031;50.974;11.330;2023-02-22T09:23:03;14.30;99.90
17815;DHT22;9031;50.974;11.330;2023-02-22T09:25:29;14.40;99.90
17815;DHT22;9031;50.974;11.330;2023-02-22T09:27:55;14.70;99.90
17815;DHT22;9031;50.974;11.330;2023-02-22T09:30:35;14.90;99.90
17815;DHT22;9031;50.974;11.330;2023-02-22T09:33:07;14.70;99.90
17815;DHT22;9031;50.974;11.330;2023-02-22T09:35:36;14.00;99.90
17815;DHT22;9031;50.974;11.330;2023-02-22T09:38:02;14.20;99.90
17815;DHT22;9031;50.974;11.330;2023-02-22T09:40:30;14.70;99.90
17815;DHT22;9031;50.974;11.330;2023-02-22T09:46:06;14.50;99.90
17815;DHT22;9031;50.974;11.330;2023-02-22T09:48:42;14.50;99.90
17815;DHT22;9031;50.974;11.330;2023-02-22T09:51:14;14.10;99.90
17815;DHT22;9031;50.974;11.330;2023-02-22T09:53:43;14.40;99.90
17815;DHT22;9031;50.974;11.330;2023-02-22T09:56:11;15.10;99.90
17815;DHT22;9031;50.974;11.330;2023-02-22T09:58:40;15.60;99.90
17815;DHT22;9031;50.974;11.330;2023-02-22T10:01:27;15.60;99.90
17815;DHT22;9031;50.974;11.330;2023-02-22T10:04:23;15.80;99.90
17815;DHT22;9031;50.974;11.330;2023-02-22T10:07:14;15.80;99.90
17815;DHT22;9031;50.974;11.330;2023-02-22T10:09:43;16.00;99.90
17815;DHT22;9031;50.974;11.330;2023-02-22T10:12:38;16.80;99.90
17815;DHT22;9031;50.974;11.330;2023-02-22T10:15:14;17.30;99.90
17815;DHT22;9031;50.974;11.330;2023-02-22T10:17:51;17.80;99.90
17815;DHT22;9031;50.974;11.330;2023-02-22T10:20:34;18.30;99.90
17815;DHT22;9031;50.974;11.330;2023-02-22T10:23:12;18.30;99.90
17815;DHT22;9031;50.974;11.330;2023-02-22T10:25:43;19.10;99.90
17815;DHT22;9031;50.974;11.330;2023-02-22T10:28:25;19.10;99.90
17815;DHT22;9031;50.974;11.330;2023-02-22T10:31:04;19.40;99.90
17815;DHT22;9031;50.974;11.330;2023-02-22T10:33:38;19.20;99.90
17815;DHT22;9031;50.974;11.330;2023-02-22T10:36:07;19.30;99.90
17815;DHT22;9031;50.974;11.330;2023-02-22T10:38:44;19.80;99.90
17815;DHT22;9031;50.974;11.330;2023-02-22T10:41:33;19.80;99.90
17815;DHT22;9031;50.974;11.330;2023-02-22T10:44:01;20.50;99.90
17815;DHT22;9031;50.974;11.330;2023-02-22T10:46:29;21.10;99.90
17815;DHT22;9031;50.974;11.330;2023-02-22T10:48:59;21.60;99.90
17815;DHT22;9031;50.974;11.330;2023-02-22T10:51:27;21.60;99.90
17815;DHT22;9031;50.974;11.330;2023-02-22T10:54:21;20.80;99.90
17815;DHT22;9031;50.974;11.330;2023-02-22T10:56:53;21.20;99.90
17815;DHT22;9031;50.974;11.330;2023-02-22T10:59:31;21.40;99.90
17815;DHT22;9031;50.974;11.330;2023-02-22T11:01:57;21.90;99.90
17815;DHT22;9031;50.974;11.330;2023-02-22T11:04:23;22.90;99.90
17815;DHT22;9031;50.974;11.330;2023-02-22T11:09:24;23.20;99.90
17815;DHT22;9031;50.974;11.330;2023-02-22T11:12:07;23.00;99.90
17815;DHT22;9031;50.974;11.330;2023-02-22T11:14:33;22.90;99.90
17815;DHT22;9031;50.974;11.330;2023-02-22T11:17:00;23.50;99.90
17815;DHT22;9031;50.974;11.330;2023-02-22T11:19:31;23.40;99.90
17815;DHT22;9031;50.974;11.330;2023-02-22T11:21:58;23.50;99.90
17815;DHT22;9031;50.974;11.330;2023-02-22T11:24:33;23.20;99.90
17815;DHT22;9031;50.974;11.330;2023-02-22T11:29:50;23.20;99.90
17815;DHT22;9031;50.974;11.330;2023-02-22T11:32:18;21.10;99.90
17815;DHT22;9031;50.974;11.330;2023-02-22T11:34:47;19.80;99.90
17815;DHT22;9031;50.974;11.330;2023-02-22T11:39:47;19.60;99.90
17815;DHT22;9031;50.974;11.330;2023-02-22T11:42:23;20.40;99.90
17815;DHT22;9031;50.974;11.330;2023-02-22T11:45:10;20.50;99.90
17815;DHT22;9031;50.974;11.330;2023-02-22T11:48:06;20.10;99.90
17815;DHT22;9031;50.974;11.330;2023-02-22T11:54:03;20.30;99.90
17815;DHT22;9031;50.974;11.330;2023-02-22T11:56:41;19.00;99.90
17815;DHT22;9031;50.974;11.330;2023-02-22T12:01:54;18.10;99.90
17815;DHT22;9031;50.974;11.330;2023-02-22T12:07:13;19.80;99.90
17815;DHT22;9031;50.974;11.330;2023-02-22T12:09:50;20.20;99.90
17815;DHT22;9031;50.974;11.330;2023-02-22T12:12:26;21.20;99.90
17815;DHT22;9031;50.974;11.330;2023-02-22T12:15:01;22.30;99.90
17815;DHT22;9031;50.974;11.330;2023-02-22T12:20:21;23.70;99.90
17815;DHT22;9031;50.974;11.330;2023-02-22T12:22:58;23.70;99.90
17815;DHT22;9031;50.974;11.330;2023-02-22T12:25:27;23.50;99.90
17815;DHT22;9031;50.974;11.330;2023-02-22T12:27:59;23.80;99.90
17815;DHT22;9031;50.974;11.330;2023-02-22T12:30:36;24.30;99.90
17815;DHT22;9031;50.974;11.330;2023-02-22T12:33:12;24.00;99.90
17815;DHT22;9031;50.974;11.330;2023-02-22T12:35:41;22.80;99.90
17815;DHT22;9031;50.974;11.330;2023-02-22T12:40:55;21.80;99.90
17815;DHT22;9031;50.974;11.330;2023-02-22T12:43:31;21.60;99.90
17815;DHT22;9031;50.974;11.330;2023-02-22T12:46:28;22.10;99.90
17815;DHT22;9031;50.974;11.330;2023-02-22T12:48:59;22.60;99.90
17815;DHT22;9031;50.974;11.330;2023-02-22T12:51:42;21.50;99.90
17815;DHT22;9031;50.974;11.330;2023-02-22T12:54:45;21.70;99.90
17815;DHT22;9031;50.974;11.330;2023-02-22T12:57:30;22.30;99.90
17815;DHT22;9031;50.974;11.330;2023-02-22T13:00:05;21.70;99.90
17815;DHT22;9031;50.974;11.330;2023-02-22T13:02:53;20.70;99.90
17815;DHT22;9031;50.974;11.330;2023-02-22T13:05:19;20.40;99.90
17815;DHT22;9031;50.974;11.330;2023-02-22T13:10:34;19.70;99.90
17815;DHT22;9031;50.974;11.330;2023-02-22T13:15:46;18.90;99.90
17815;DHT22;9031;50.974;11.330;2023-02-22T13:31:54;18.40;99.90
17815;DHT22;9031;50.974;11.330;2023-02-22T13:37:59;18.50;99.90
17815;DHT22;9031;50.974;11.330;2023-02-22T13:40:46;18.60;99.90
17815;DHT22;9031;50.974;11.330;2023-02-22T13:46:24;18.70;99.90
17815;DHT22;9031;50.974;11.330;2023-02-22T13:49:24;18.20;99.90
17815;DHT22;9031;50.974;11.330;2023-02-22T13:51:58;17.40;99.90
17815;DHT22;9031;50.974;11.330;2023-02-22T13:54:34;17.40;99.90
17815;DHT22;9031;50.974;11.330;2023-02-22T13:57:03;17.70;99.90
17815;DHT22;9031;50.974;11.330;2023-02-22T13:59:34;18.00;99.90
17815;DHT22;9031;50.974;11.330;2023-02-22T14:02:02;18.40;99.90
17815;DHT22;9031;50.974;11.330;2023-02-22T14:06:56;17.10;99.90
17815;DHT22;9031;50.974;11.330;2023-02-22T14:17:39;17.70;99.90
17815;DHT22;9031;50.974;11.330;2023-02-22T14:20:21;17.50;99.90
17815;DHT22;9031;50.974;11.330;2023-02-22T14:22:54;17.40;99.90
17815;DHT22;9031;50.974;11.330;2023-02-22T14:25:41;17.60;99.90
17815;DHT22;9031;50.974;11.330;2023-02-22T14:31:12;17.80;99.90
17815;DHT22;9031;50.974;11.330;2023-02-22T14:39:19;17.10;99.90
17815;DHT22;9031;50.974;11.330;2023-02-22T14:47:54;17.60;99.90
17815;DHT22;9031;50.974;11.330;2023-02-22T14:53:15;16.90;99.90
17815;DHT22;9031;50.974;11.330;2023-02-22T14:55:48;16.80;99.90
17815;DHT22;9031;50.974;11.330;2023-02-22T14:59:12;16.80;99.90
17815;DHT22;9031;50.974;11.330;2023-02-22T15:01:31;16.90;99.90
17815;DHT22;9031;50.974;11.330;2023-02-22T15:06:48;17.20;99.90
17815;DHT22;9031;50.974;11.330;2023-02-22T15:09:26;17.30;99.90
17815;DHT22;9031;50.974;11.330;2023-02-22T15:14:32;17.10;99.90
17815;DHT22;9031;50.974;11.330;2023-02-22T15:17:06;17.20;99.90
17815;DHT22;9031;50.974;11.330;2023-02-22T15:19:36;17.40;99.90
17815;DHT22;9031;50.974;11.330;2023-02-22T15:22:02;17.50;99.90
17815;DHT22;9031;50.974;11.330;2023-02-22T15:24:33;17.10;99.90
17815;DHT22;9031;50.974;11.330;2023-02-22T15:27:06;16.60;99.90
17815;DHT22;9031;50.974;11.330;2023-02-22T15:29:35;16.40;99.90
17815;DHT22;9031;50.974;11.330;2023-02-22T15:32:11;16.40;99.90
17815;DHT22;9031;50.974;11.330;2023-02-22T15:34:41;16.30;99.90
17815;DHT22;9031;50.974;11.330;2023-02-22T15:37:33;16.00;99.90
17815;DHT22;9031;50.974;11.330;2023-02-22T15:40:16;16.10;99.90
17815;DHT22;9031;50.974;11.330;2023-02-22T15:42:45;16.10;99.90
17815;DHT22;9031;50.974;11.330;2023-02-22T15:45:17;16.10;99.90
17815;DHT22;9031;50.974;11.330;2023-02-22T15:47:44;15.90;99.90
17815;DHT22;9031;50.974;11.330;2023-02-22T15:50:21;16.00;99.90
17815;DHT22;9031;50.974;11.330;2023-02-22T15:52:59;16.00;99.90
17815;DHT22;9031;50.974;11.330;2023-02-22T15:55:33;15.90;99.90
17815;DHT22;9031;50.974;11.330;2023-02-22T16:01:05;15.90;99.90
17815;DHT22;9031;50.974;11.330;2023-02-22T16:08:58;15.40;99.90
17815;DHT22;9031;50.974;11.330;2023-02-22T16:11:29;15.30;99.90
17815;DHT22;9031;50.974;11.330;2023-02-22T16:14:03;15.30;99.90
17815;DHT22;9031;50.974;11.330;2023-02-22T16:16:37;15.10;99.90
17815;DHT22;9031;50.974;11.330;2023-02-22T16:21:51;14.80;99.90
17815;DHT22;9031;50.974;11.330;2023-02-22T16:24:27;14.60;99.90
17815;DHT22;9031;50.974;11.330;2023-02-22T16:27:05;14.50;99.90
17815;DHT22;9031;50.974;11.330;2023-02-22T16:29:31;14.40;99.90
17815;DHT22;9031;50.974;11.330;2023-02-22T16:31:56;14.30;99.90
17815;DHT22;9031;50.974;11.330;2023-02-22T16:34:22;14.20;99.90
17815;DHT22;9031;50.974;11.330;2023-02-22T16:36:49;14.10;99.90
17815;DHT22;9031;50.974;11.330;2023-02-22T16:39:26;14.10;99.90
17815;DHT22;9031;50.974;11.330;2023-02-22T16:41:57;13.90;99.90
17815;DHT22;9031;50.974;11.330;2023-02-22T16:44:24;13.80;99.90
17815;DHT22;9031;50.974;11.330;2023-02-22T16:46:55;13.70;99.90
17815;DHT22;9031;50.974;11.330;2023-02-22T16:49:21;13.70;99.90
17815;DHT22;9031;50.974;11.330;2023-02-22T16:51:53;13.60;99.90
17815;DHT22;9031;50.974;11.330;2023-02-22T16:54:31;13.50;99.90
17815;DHT22;9031;50.974;11.330;2023-02-22T16:57:00;13.40;99.90
17815;DHT22;9031;50.974;11.330;2023-02-22T16:59:27;13.40;99.90
17815;DHT22;9031;50.974;11.330;2023-02-22T17:01:52;13.30;99.90
17815;DHT22;9031;50.974;11.330;2023-02-22T17:04:20;13.20;99.90
17815;DHT22;9031;50.974;11.330;2023-02-22T17:06:47;13.20;99.90
17815;DHT22;9031;50.974;11.330;2023-02-22T17:09:13;13.10;99.90
17815;DHT22;9031;50.974;11.330;2023-02-22T17:11:40;13.10;99.90
17815;DHT22;9031;50.974;11.330;2023-02-22T17:14:06;13.00;99.90
17815;DHT22;9031;50.974;11.330;2023-02-22T17:16:32;12.90;99.90
17815;DHT22;9031;50.974;11.330;2023-02-22T17:18:57;12.90;99.90
17815;DHT22;9031;50.974;11.330;2023-02-22T17:21:23;12.90;99.90
17815;DHT22;9031;50.974;11.330;2023-02-22T17:23:48;12.80;99.90
17815;DHT22;9031;50.974;11.330;2023-02-22T17:26:15;12.80;99.90
17815;DHT22;9031;50.974;11.330;2023-02-22T17:28:41;12.70;99.90
17815;DHT22;9031;50.974;11.330;2023-02-22T17:31:19;12.60;99.90
17815;DHT22;9031;50.974;11.330;2023-02-22T17:33:46;12.60;99.90
17815;DHT22;9031;50.974;11.330;2023-02-22T17:36:11;12.60;99.90
17815;DHT22;9031;50.974;11.330;2023-02-22T17:38:37;12.60;99.90
17815;DHT22;9031;50.974;11.330;2023-02-22T17:41:06;12.50;99.90
17815;DHT22;9031;50.974;11.330;2023-02-22T17:43:31;12.50;99.90
17815;DHT22;9031;50.974;11.330;2023-02-22T17:45:57;12.40;99.90
17815;DHT22;9031;50.974;11.330;2023-02-22T17:48:22;12.30;99.90
17815;DHT22;9031;50.974;11.330;2023-02-22T17:50:48;12.30;99.90
17815;DHT22;9031;50.974;11.330;2023-02-22T17:53:14;12.30;99.90